PWSweather.com
Personal Weather Stations
Station Observations
WD4JKH
Forsyth, GA 31029

Forsyth, GA 31029

Lat: 33.033225, Lon: -83.927995

Elevation: 709

Station Type: Davis Vantage VUE

High Low Average
Temperature 58.3°F14.6°C 29.9°F-1.2°C 43.2°F6.2°C
Dew Point 37.9°F3.3°C 28.1°F-2.2°C 33.2°F0.7°C
Winds 5.5 mph 8.9 kmh Calm Calm 2.0 mph WNW3.2 kmh WNW
Wind Gusts 11.0 mph17.7 kmh 1.0 mph1.6 kmh 6.0 mph9.7 kmh
Humidity 93% 45% 70%
Pressure 30.33 in1027.1 mb 30.24 in1024.0 mb -
Precipitation 0.00 in0.0 mm - -
Hour Temp Dew Point Humidity Winds Wind Gusts Pressure Precip Precip Rate Daily Precip Total
12:03 AM 35.0°F1.7°C 30.9°F-0.6°C 85% 2.5 mph NW4.0 kmh NW 7.0 mph11.3 kmh 30.29 in1025.7 mb 0.00 in0.0 mm 0.00 in0.0 mm 0.00 in0.0 mm
12:08 AM 34.9°F1.6°C 30.8°F-0.7°C 85% 2.7 mph NW4.3 kmh NW 7.0 mph11.3 kmh 30.29 in1025.7 mb 0.00 in0.0 mm 0.00 in0.0 mm 0.00 in0.0 mm
12:13 AM 34.8°F1.6°C 30.8°F-0.7°C 85% 2.9 mph NW4.7 kmh NW 7.0 mph11.3 kmh 30.29 in1025.7 mb 0.00 in0.0 mm 0.00 in0.0 mm 0.00 in0.0 mm
12:18 AM 34.7°F1.5°C 30.7°F-0.7°C 85% 3.3 mph NW5.3 kmh NW 8.0 mph12.9 kmh 30.29 in1025.7 mb 0.00 in0.0 mm 0.00 in0.0 mm 0.00 in0.0 mm
12:23 AM 34.7°F1.5°C 30.6°F-0.8°C 85% 3.0 mph NW4.8 kmh NW 8.0 mph12.9 kmh 30.29 in1025.7 mb 0.00 in0.0 mm 0.00 in0.0 mm 0.00 in0.0 mm
12:28 AM 34.7°F1.5°C 30.6°F-0.8°C 85% 3.1 mph NW5.0 kmh NW 8.0 mph12.9 kmh 30.29 in1025.7 mb 0.00 in0.0 mm 0.00 in0.0 mm 0.00 in0.0 mm
12:33 AM 34.6°F1.4°C 30.5°F-0.8°C 85% 2.0 mph NW3.2 kmh NW 8.0 mph12.9 kmh 30.29 in1025.7 mb 0.00 in0.0 mm 0.00 in0.0 mm 0.00 in0.0 mm
12:38 AM 34.5°F1.4°C 30.4°F-0.9°C 85% 2.4 mph NW3.9 kmh NW 7.0 mph11.3 kmh 30.29 in1025.7 mb 0.00 in0.0 mm 0.00 in0.0 mm 0.00 in0.0 mm
12:43 AM 34.4°F1.3°C 30.6°F-0.8°C 86% 2.6 mph NW4.2 kmh NW 7.0 mph11.3 kmh 30.28 in1025.4 mb 0.00 in0.0 mm 0.00 in0.0 mm 0.00 in0.0 mm
12:48 AM 34.3°F1.3°C 30.5°F-0.8°C 86% 2.0 mph NW3.2 kmh NW 7.0 mph11.3 kmh 30.29 in1025.7 mb 0.00 in0.0 mm 0.00 in0.0 mm 0.00 in0.0 mm
12:53 AM 34.3°F1.3°C 30.5°F-0.8°C 86% 2.3 mph NW3.7 kmh NW 6.0 mph9.7 kmh 30.29 in1025.7 mb 0.00 in0.0 mm 0.00 in0.0 mm 0.00 in0.0 mm
12:58 AM 34.1°F1.2°C 30.3°F-0.9°C 86% 2.3 mph WNW3.7 kmh WNW 6.0 mph9.7 kmh 30.29 in1025.7 mb 0.00 in0.0 mm 0.00 in0.0 mm 0.00 in0.0 mm
01:03 AM 34.1°F1.2°C 30.3°F-0.9°C 86% 2.0 mph WNW3.2 kmh WNW 6.0 mph9.7 kmh 30.29 in1025.7 mb 0.00 in0.0 mm 0.00 in0.0 mm 0.00 in0.0 mm
01:08 AM 34.0°F1.1°C 30.2°F-1.0°C 86% 3.1 mph WNW5.0 kmh WNW 9.0 mph14.5 kmh 30.29 in1025.7 mb 0.00 in0.0 mm 0.00 in0.0 mm 0.00 in0.0 mm
01:13 AM 34.0°F1.1°C 30.2°F-1.0°C 86% 2.8 mph WNW4.5 kmh WNW 9.0 mph14.5 kmh 30.29 in1025.7 mb 0.00 in0.0 mm 0.00 in0.0 mm 0.00 in0.0 mm
01:18 AM 33.9°F1.1°C 30.1°F-1.1°C 86% 2.0 mph WNW3.2 kmh WNW 9.0 mph14.5 kmh 30.29 in1025.7 mb 0.00 in0.0 mm 0.00 in0.0 mm 0.00 in0.0 mm
01:23 AM 33.9°F1.1°C 30.4°F-0.9°C 87% 1.7 mph WNW2.7 kmh WNW 9.0 mph14.5 kmh 30.28 in1025.4 mb 0.00 in0.0 mm 0.00 in0.0 mm 0.00 in0.0 mm
01:28 AM 33.8°F1.0°C 30.3°F-0.9°C 87% 2.3 mph NW3.7 kmh NW 7.0 mph11.3 kmh 30.28 in1025.4 mb 0.00 in0.0 mm 0.00 in0.0 mm 0.00 in0.0 mm
01:33 AM 33.7°F0.9°C 30.2°F-1.0°C 87% 2.1 mph WNW3.4 kmh WNW 7.0 mph11.3 kmh 30.28 in1025.4 mb 0.00 in0.0 mm 0.00 in0.0 mm 0.00 in0.0 mm
01:38 AM 33.6°F0.9°C 30.1°F-1.1°C 87% 2.5 mph WNW4.0 kmh WNW 7.0 mph11.3 kmh 30.28 in1025.4 mb 0.00 in0.0 mm 0.00 in0.0 mm 0.00 in0.0 mm
01:43 AM 33.5°F0.8°C 30.0°F-1.1°C 87% 2.6 mph WNW4.2 kmh WNW 6.0 mph9.7 kmh 30.28 in1025.4 mb 0.00 in0.0 mm 0.00 in0.0 mm 0.00 in0.0 mm
01:48 AM 33.4°F0.8°C 29.9°F-1.2°C 87% 2.7 mph WNW4.3 kmh WNW 6.0 mph9.7 kmh 30.28 in1025.4 mb 0.00 in0.0 mm 0.00 in0.0 mm 0.00 in0.0 mm
01:53 AM 33.3°F0.7°C 30.1°F-1.1°C 88% 1.8 mph WNW2.9 kmh WNW 6.0 mph9.7 kmh 30.27 in1025.1 mb 0.00 in0.0 mm 0.00 in0.0 mm 0.00 in0.0 mm
01:58 AM 33.2°F0.7°C 30.0°F-1.1°C 88% 3.4 mph WNW5.5 kmh WNW 7.0 mph11.3 kmh 30.27 in1025.1 mb 0.00 in0.0 mm 0.00 in0.0 mm 0.00 in0.0 mm
02:03 AM 33.1°F0.6°C 29.9°F-1.2°C 88% 1.9 mph WNW3.1 kmh WNW 7.0 mph11.3 kmh 30.27 in1025.1 mb 0.00 in0.0 mm 0.00 in0.0 mm 0.00 in0.0 mm
02:08 AM 32.9°F0.5°C 29.7°F-1.3°C 88% 1.6 mph WNW2.6 kmh WNW 7.0 mph11.3 kmh 30.27 in1025.1 mb 0.00 in0.0 mm 0.00 in0.0 mm 0.00 in0.0 mm
02:13 AM 32.8°F0.4°C 29.6°F-1.3°C 88% 1.9 mph WNW3.1 kmh WNW 7.0 mph11.3 kmh 30.27 in1025.1 mb 0.00 in0.0 mm 0.00 in0.0 mm 0.00 in0.0 mm
02:18 AM 32.7°F0.4°C 29.5°F-1.4°C 88% 2.1 mph WNW3.4 kmh WNW 5.0 mph8.0 kmh 30.27 in1025.1 mb 0.00 in0.0 mm 0.00 in0.0 mm 0.00 in0.0 mm
02:23 AM 32.7°F0.4°C 29.8°F-1.2°C 89% 2.1 mph WNW3.4 kmh WNW 5.0 mph8.0 kmh 30.27 in1025.1 mb 0.00 in0.0 mm 0.00 in0.0 mm 0.00 in0.0 mm
02:28 AM 32.7°F0.4°C 29.8°F-1.2°C 89% 3.0 mph WNW4.8 kmh WNW 5.0 mph8.0 kmh 30.27 in1025.1 mb 0.00 in0.0 mm 0.00 in0.0 mm 0.00 in0.0 mm
02:33 AM 32.6°F0.3°C 29.7°F-1.3°C 89% 2.7 mph WNW4.3 kmh WNW 5.0 mph8.0 kmh 30.27 in1025.1 mb 0.00 in0.0 mm 0.00 in0.0 mm 0.00 in0.0 mm
02:38 AM 32.5°F0.3°C 29.6°F-1.3°C 89% 2.2 mph WNW3.5 kmh WNW 5.0 mph8.0 kmh 30.27 in1025.1 mb 0.00 in0.0 mm 0.00 in0.0 mm 0.00 in0.0 mm
02:43 AM 32.5°F0.3°C 29.6°F-1.3°C 89% 2.8 mph WNW4.5 kmh WNW 5.0 mph8.0 kmh 30.27 in1025.1 mb 0.00 in0.0 mm 0.00 in0.0 mm 0.00 in0.0 mm
02:48 AM 32.5°F0.3°C 29.6°F-1.3°C 89% 3.2 mph WNW5.1 kmh WNW 6.0 mph9.7 kmh 30.27 in1025.1 mb 0.00 in0.0 mm 0.00 in0.0 mm 0.00 in0.0 mm
02:53 AM 32.4°F0.2°C 29.5°F-1.4°C 89% 2.9 mph WNW4.7 kmh WNW 6.0 mph9.7 kmh 30.27 in1025.1 mb 0.00 in0.0 mm 0.00 in0.0 mm 0.00 in0.0 mm
02:58 AM 32.4°F0.2°C 29.5°F-1.4°C 89% 2.5 mph WNW4.0 kmh WNW 6.0 mph9.7 kmh 30.27 in1025.1 mb 0.00 in0.0 mm 0.00 in0.0 mm 0.00 in0.0 mm
03:03 AM 32.4°F0.2°C 29.5°F-1.4°C 89% 2.1 mph WNW3.4 kmh WNW 6.0 mph9.7 kmh 30.27 in1025.1 mb 0.00 in0.0 mm 0.00 in0.0 mm 0.00 in0.0 mm
03:08 AM 32.4°F0.2°C 29.5°F-1.4°C 89% 1.6 mph NW2.6 kmh NW 6.0 mph9.7 kmh 30.27 in1025.1 mb 0.00 in0.0 mm 0.00 in0.0 mm 0.00 in0.0 mm
03:13 AM 32.3°F0.2°C 29.4°F-1.4°C 89% 2.1 mph NW3.4 kmh NW 6.0 mph9.7 kmh 30.27 in1025.1 mb 0.00 in0.0 mm 0.00 in0.0 mm 0.00 in0.0 mm
03:18 AM 32.3°F0.2°C 29.4°F-1.4°C 89% 2.0 mph NW3.2 kmh NW 6.0 mph9.7 kmh 30.27 in1025.1 mb 0.00 in0.0 mm 0.00 in0.0 mm 0.00 in0.0 mm
03:23 AM 32.3°F0.2°C 29.4°F-1.4°C 89% 2.1 mph NW3.4 kmh NW 6.0 mph9.7 kmh 30.27 in1025.1 mb 0.00 in0.0 mm 0.00 in0.0 mm 0.00 in0.0 mm
03:28 AM 32.2°F0.1°C 29.6°F-1.3°C 90% 1.7 mph WNW2.7 kmh WNW 6.0 mph9.7 kmh 30.28 in1025.4 mb 0.00 in0.0 mm 0.00 in0.0 mm 0.00 in0.0 mm
03:33 AM 32.1°F0.1°C 29.5°F-1.4°C 90% 1.3 mph NW2.1 kmh NW 6.0 mph9.7 kmh 30.27 in1025.1 mb 0.00 in0.0 mm 0.00 in0.0 mm 0.00 in0.0 mm
03:38 AM 32.2°F0.1°C 29.6°F-1.3°C 90% 1.4 mph NW2.3 kmh NW 6.0 mph9.7 kmh 30.27 in1025.1 mb 0.00 in0.0 mm 0.00 in0.0 mm 0.00 in0.0 mm
03:42 AM 32.2°F0.1°C 29.6°F-1.3°C 90% 1.6 mph WNW2.6 kmh WNW 6.0 mph9.7 kmh 30.28 in1025.4 mb 0.00 in0.0 mm 0.00 in0.0 mm 0.00 in0.0 mm
03:47 AM 32.2°F0.1°C 29.6°F-1.3°C 90% 1.5 mph WNW2.4 kmh WNW 5.0 mph8.0 kmh 30.28 in1025.4 mb 0.00 in0.0 mm 0.00 in0.0 mm 0.00 in0.0 mm
03:52 AM 32.1°F0.1°C 29.5°F-1.4°C 90% 1.6 mph WNW2.6 kmh WNW 5.0 mph8.0 kmh 30.28 in1025.4 mb 0.00 in0.0 mm 0.00 in0.0 mm 0.00 in0.0 mm
03:57 AM 32.0°F0.0°C 29.4°F-1.4°C 90% 1.3 mph WNW2.1 kmh WNW 4.0 mph6.4 kmh 30.28 in1025.4 mb 0.00 in0.0 mm 0.00 in0.0 mm 0.00 in0.0 mm
04:02 AM 31.8°F-0.1°C 29.2°F-1.6°C 90% 1.5 mph W2.4 kmh W 4.0 mph6.4 kmh 30.28 in1025.4 mb 0.00 in0.0 mm 0.00 in0.0 mm 0.00 in0.0 mm
04:07 AM 31.8°F-0.1°C 29.2°F-1.6°C 90% 2.1 mph WNW3.4 kmh WNW 4.0 mph6.4 kmh 30.28 in1025.4 mb 0.00 in0.0 mm 0.00 in0.0 mm 0.00 in0.0 mm
04:12 AM 31.7°F-0.2°C 29.1°F-1.6°C 90% 2.0 mph WNW3.2 kmh WNW 4.0 mph6.4 kmh 30.28 in1025.4 mb 0.00 in0.0 mm 0.00 in0.0 mm 0.00 in0.0 mm
04:17 AM 31.6°F-0.2°C 29.0°F-1.7°C 90% 1.6 mph NW2.6 kmh NW 5.0 mph8.0 kmh 30.28 in1025.4 mb 0.00 in0.0 mm 0.00 in0.0 mm 0.00 in0.0 mm
04:22 AM 31.6°F-0.2°C 29.0°F-1.7°C 90% 1.3 mph NW2.1 kmh NW 5.0 mph8.0 kmh 30.28 in1025.4 mb 0.00 in0.0 mm 0.00 in0.0 mm 0.00 in0.0 mm
04:27 AM 31.6°F-0.2°C 29.0°F-1.7°C 90% 1.2 mph NW1.9 kmh NW 5.0 mph8.0 kmh 30.28 in1025.4 mb 0.00 in0.0 mm 0.00 in0.0 mm 0.00 in0.0 mm
04:32 AM 31.6°F-0.2°C 29.0°F-1.7°C 90% 1.2 mph NW1.9 kmh NW 5.0 mph8.0 kmh 30.28 in1025.4 mb 0.00 in0.0 mm 0.00 in0.0 mm 0.00 in0.0 mm
04:37 AM 31.6°F-0.2°C 29.0°F-1.7°C 90% 2.8 mph NW4.5 kmh NW 6.0 mph9.7 kmh 30.28 in1025.4 mb 0.00 in0.0 mm 0.00 in0.0 mm 0.00 in0.0 mm
04:42 AM 31.6°F-0.2°C 29.0°F-1.7°C 90% 2.3 mph NW3.7 kmh NW 6.0 mph9.7 kmh 30.28 in1025.4 mb 0.00 in0.0 mm 0.00 in0.0 mm 0.00 in0.0 mm
04:47 AM 31.7°F-0.2°C 29.1°F-1.6°C 90% 2.1 mph NW3.4 kmh NW 6.0 mph9.7 kmh 30.28 in1025.4 mb 0.00 in0.0 mm 0.00 in0.0 mm 0.00 in0.0 mm
04:53 AM 31.6°F-0.2°C 29.0°F-1.7°C 90% 1.6 mph WNW2.6 kmh WNW 6.0 mph9.7 kmh 30.28 in1025.4 mb 0.00 in0.0 mm 0.00 in0.0 mm 0.00 in0.0 mm
04:58 AM 31.6°F-0.2°C 29.0°F-1.7°C 90% 1.9 mph WNW3.1 kmh WNW 6.0 mph9.7 kmh 30.28 in1025.4 mb 0.00 in0.0 mm 0.00 in0.0 mm 0.00 in0.0 mm
05:03 AM 31.5°F-0.3°C 28.9°F-1.7°C 90% 1.6 mph WNW2.6 kmh WNW 6.0 mph9.7 kmh 30.27 in1025.1 mb 0.00 in0.0 mm 0.00 in0.0 mm 0.00 in0.0 mm
05:07 AM 31.3°F-0.4°C 28.7°F-1.8°C 90% 2.9 mph WNW4.7 kmh WNW 6.0 mph9.7 kmh 30.28 in1025.4 mb 0.00 in0.0 mm 0.00 in0.0 mm 0.00 in0.0 mm
05:13 AM 31.3°F-0.4°C 29.0°F-1.7°C 91% 2.6 mph WNW4.2 kmh WNW 6.0 mph9.7 kmh 30.28 in1025.4 mb 0.00 in0.0 mm 0.00 in0.0 mm 0.00 in0.0 mm
05:18 AM 31.2°F-0.4°C 28.9°F-1.7°C 91% 2.0 mph WNW3.2 kmh WNW 6.0 mph9.7 kmh 30.28 in1025.4 mb 0.00 in0.0 mm 0.00 in0.0 mm 0.00 in0.0 mm
05:23 AM 31.1°F-0.5°C 28.7°F-1.8°C 91% 2.9 mph WNW4.7 kmh WNW 7.0 mph11.3 kmh 30.27 in1025.1 mb 0.00 in0.0 mm 0.00 in0.0 mm 0.00 in0.0 mm
05:28 AM 31.1°F-0.5°C 28.7°F-1.8°C 91% 2.5 mph WNW4.0 kmh WNW 7.0 mph11.3 kmh 30.27 in1025.1 mb 0.00 in0.0 mm 0.00 in0.0 mm 0.00 in0.0 mm
05:33 AM 31.0°F-0.6°C 28.7°F-1.8°C 91% 2.0 mph WNW3.2 kmh WNW 7.0 mph11.3 kmh 30.27 in1025.1 mb 0.00 in0.0 mm 0.00 in0.0 mm 0.00 in0.0 mm
05:38 AM 31.0°F-0.6°C 28.7°F-1.8°C 91% 2.3 mph WNW3.7 kmh WNW 7.0 mph11.3 kmh 30.27 in1025.1 mb 0.00 in0.0 mm 0.00 in0.0 mm 0.00 in0.0 mm
05:43 AM 30.9°F-0.6°C 28.5°F-1.9°C 91% 2.9 mph NW4.7 kmh NW 5.0 mph8.0 kmh 30.27 in1025.1 mb 0.00 in0.0 mm 0.00 in0.0 mm 0.00 in0.0 mm
05:48 AM 30.9°F-0.6°C 28.5°F-1.9°C 91% 1.6 mph WNW2.6 kmh WNW 7.0 mph11.3 kmh 30.27 in1025.1 mb 0.00 in0.0 mm 0.00 in0.0 mm 0.00 in0.0 mm
05:53 AM 30.8°F-0.7°C 28.4°F-2.0°C 91% 2.0 mph NW3.2 kmh NW 7.0 mph11.3 kmh 30.27 in1025.1 mb 0.00 in0.0 mm 0.00 in0.0 mm 0.00 in0.0 mm
05:58 AM 30.8°F-0.7°C 28.5°F-1.9°C 91% 2.3 mph WNW3.7 kmh WNW 7.0 mph11.3 kmh 30.27 in1025.1 mb 0.00 in0.0 mm 0.00 in0.0 mm 0.00 in0.0 mm
06:03 AM 30.7°F-0.7°C 28.6°F-1.9°C 92% 2.2 mph W3.5 kmh W 7.0 mph11.3 kmh 30.27 in1025.1 mb 0.00 in0.0 mm 0.00 in0.0 mm 0.00 in0.0 mm
06:08 AM 30.7°F-0.7°C 28.7°F-1.8°C 92% 2.7 mph W4.3 kmh W 6.0 mph9.7 kmh 30.27 in1025.1 mb 0.00 in0.0 mm 0.00 in0.0 mm 0.00 in0.0 mm
06:13 AM 30.7°F-0.7°C 28.6°F-1.9°C 92% 2.1 mph WNW3.4 kmh WNW 6.0 mph9.7 kmh 30.27 in1025.1 mb 0.00 in0.0 mm 0.00 in0.0 mm 0.00 in0.0 mm
06:18 AM 30.6°F-0.8°C 28.5°F-1.9°C 92% 2.3 mph WNW3.7 kmh WNW 6.0 mph9.7 kmh 30.27 in1025.1 mb 0.00 in0.0 mm 0.00 in0.0 mm 0.00 in0.0 mm
06:23 AM 30.6°F-0.8°C 28.5°F-1.9°C 92% 2.6 mph WNW4.2 kmh WNW 6.0 mph9.7 kmh 30.27 in1025.1 mb 0.00 in0.0 mm 0.00 in0.0 mm 0.00 in0.0 mm
06:28 AM 30.6°F-0.8°C 28.6°F-1.9°C 92% 2.3 mph WNW3.7 kmh WNW 6.0 mph9.7 kmh 30.27 in1025.1 mb 0.00 in0.0 mm 0.00 in0.0 mm 0.00 in0.0 mm
06:33 AM 30.6°F-0.8°C 28.5°F-1.9°C 92% 2.4 mph NW3.9 kmh NW 6.0 mph9.7 kmh 30.26 in1024.7 mb 0.00 in0.0 mm 0.00 in0.0 mm 0.00 in0.0 mm
06:38 AM 30.5°F-0.8°C 28.4°F-2.0°C 92% 2.8 mph WNW4.5 kmh WNW 5.0 mph8.0 kmh 30.27 in1025.1 mb 0.00 in0.0 mm 0.00 in0.0 mm 0.00 in0.0 mm
06:43 AM 30.5°F-0.8°C 28.4°F-2.0°C 92% 2.0 mph NW3.2 kmh NW 5.0 mph8.0 kmh 30.27 in1025.1 mb 0.00 in0.0 mm 0.00 in0.0 mm 0.00 in0.0 mm
06:48 AM 30.6°F-0.8°C 28.5°F-1.9°C 92% 1.8 mph NW2.9 kmh NW 5.0 mph8.0 kmh 30.27 in1025.1 mb 0.00 in0.0 mm 0.00 in0.0 mm 0.00 in0.0 mm
06:53 AM 30.5°F-0.8°C 28.5°F-1.9°C 92% 1.5 mph NW2.4 kmh NW 5.0 mph8.0 kmh 30.27 in1025.1 mb 0.00 in0.0 mm 0.00 in0.0 mm 0.00 in0.0 mm
06:58 AM 30.5°F-0.8°C 28.5°F-1.9°C 92% 2.6 mph NW4.2 kmh NW 5.0 mph8.0 kmh 30.27 in1025.1 mb 0.00 in0.0 mm 0.00 in0.0 mm 0.00 in0.0 mm
07:03 AM 30.5°F-0.8°C 28.5°F-1.9°C 92% 2.6 mph NW4.2 kmh NW 6.0 mph9.7 kmh 30.27 in1025.1 mb 0.00 in0.0 mm 0.00 in0.0 mm 0.00 in0.0 mm
07:08 AM 30.5°F-0.8°C 28.5°F-1.9°C 92% 2.0 mph NW3.2 kmh NW 6.0 mph9.7 kmh 30.27 in1025.1 mb 0.00 in0.0 mm 0.00 in0.0 mm 0.00 in0.0 mm
07:13 AM 30.4°F-0.9°C 28.4°F-2.0°C 92% 2.1 mph NW3.4 kmh NW 6.0 mph9.7 kmh 30.27 in1025.1 mb 0.00 in0.0 mm 0.00 in0.0 mm 0.00 in0.0 mm
07:18 AM 30.4°F-0.9°C 28.4°F-2.0°C 92% 1.2 mph WNW1.9 kmh WNW 5.0 mph8.0 kmh 30.27 in1025.1 mb 0.00 in0.0 mm 0.00 in0.0 mm 0.00 in0.0 mm
07:23 AM 30.4°F-0.9°C 28.3°F-2.1°C 92% 1.9 mph WNW3.1 kmh WNW 5.0 mph8.0 kmh 30.27 in1025.1 mb 0.00 in0.0 mm 0.00 in0.0 mm 0.00 in0.0 mm
07:28 AM 30.4°F-0.9°C 28.3°F-2.1°C 92% 1.4 mph WNW2.3 kmh WNW 5.0 mph8.0 kmh 30.27 in1025.1 mb 0.00 in0.0 mm 0.00 in0.0 mm 0.00 in0.0 mm
07:33 AM 30.4°F-0.9°C 28.3°F-2.1°C 92% 2.3 mph WNW3.7 kmh WNW 5.0 mph8.0 kmh 30.27 in1025.1 mb 0.00 in0.0 mm 0.00 in0.0 mm 0.00 in0.0 mm
07:38 AM 30.3°F-0.9°C 28.3°F-2.1°C 92% 2.2 mph NW3.5 kmh NW 5.0 mph8.0 kmh 30.28 in1025.4 mb 0.00 in0.0 mm 0.00 in0.0 mm 0.00 in0.0 mm
07:43 AM 30.2°F-1.0°C 28.2°F-2.1°C 92% 1.8 mph NW2.9 kmh NW 6.0 mph9.7 kmh 30.28 in1025.4 mb 0.00 in0.0 mm 0.00 in0.0 mm 0.00 in0.0 mm
07:48 AM 30.2°F-1.0°C 28.4°F-2.0°C 93% 1.4 mph WNW2.3 kmh WNW 6.0 mph9.7 kmh 30.27 in1025.1 mb 0.00 in0.0 mm 0.00 in0.0 mm 0.00 in0.0 mm
07:53 AM 30.1°F-1.1°C 28.3°F-2.1°C 93% 2.3 mph WNW3.7 kmh WNW 6.0 mph9.7 kmh 30.28 in1025.4 mb 0.00 in0.0 mm 0.00 in0.0 mm 0.00 in0.0 mm
07:58 AM 30.1°F-1.1°C 28.3°F-2.1°C 93% 2.0 mph WNW3.2 kmh WNW 5.0 mph8.0 kmh 30.28 in1025.4 mb 0.00 in0.0 mm 0.00 in0.0 mm 0.00 in0.0 mm
08:03 AM 30.0°F-1.1°C 28.2°F-2.1°C 93% 1.6 mph WNW2.6 kmh WNW 5.0 mph8.0 kmh 30.28 in1025.4 mb 0.00 in0.0 mm 0.00 in0.0 mm 0.00 in0.0 mm
08:08 AM 30.1°F-1.1°C 28.3°F-2.1°C 93% 2.4 mph WNW3.9 kmh WNW 5.0 mph8.0 kmh 30.28 in1025.4 mb 0.00 in0.0 mm 0.00 in0.0 mm 0.00 in0.0 mm
08:13 AM 30.0°F-1.1°C 28.2°F-2.1°C 93% 1.6 mph WNW2.6 kmh WNW 5.0 mph8.0 kmh 30.28 in1025.4 mb 0.00 in0.0 mm 0.00 in0.0 mm 0.00 in0.0 mm
08:18 AM 30.0°F-1.1°C 28.2°F-2.1°C 93% 2.2 mph WNW3.5 kmh WNW 6.0 mph9.7 kmh 30.28 in1025.4 mb 0.00 in0.0 mm 0.00 in0.0 mm 0.00 in0.0 mm
08:23 AM 30.0°F-1.1°C 28.2°F-2.1°C 93% 2.2 mph NW3.5 kmh NW 6.0 mph9.7 kmh 30.28 in1025.4 mb 0.00 in0.0 mm 0.00 in0.0 mm 0.00 in0.0 mm
08:28 AM 30.0°F-1.1°C 28.2°F-2.1°C 93% 2.5 mph NW4.0 kmh NW 6.0 mph9.7 kmh 30.28 in1025.4 mb 0.00 in0.0 mm 0.00 in0.0 mm 0.00 in0.0 mm
08:33 AM 29.9°F-1.2°C 28.1°F-2.2°C 93% 1.8 mph NW2.9 kmh NW 6.0 mph9.7 kmh 30.29 in1025.7 mb 0.00 in0.0 mm 0.00 in0.0 mm 0.00 in0.0 mm
08:38 AM 29.9°F-1.2°C 28.1°F-2.2°C 93% 1.9 mph WNW3.1 kmh WNW 4.0 mph6.4 kmh 30.29 in1025.7 mb 0.00 in0.0 mm 0.00 in0.0 mm 0.00 in0.0 mm
08:42 AM 29.9°F-1.2°C 28.1°F-2.2°C 93% 1.3 mph WNW2.1 kmh WNW 5.0 mph8.0 kmh 30.29 in1025.7 mb 0.00 in0.0 mm 0.00 in0.0 mm 0.00 in0.0 mm
08:47 AM 29.9°F-1.2°C 28.1°F-2.2°C 93% 1.6 mph WNW2.6 kmh WNW 5.0 mph8.0 kmh 30.29 in1025.7 mb 0.00 in0.0 mm 0.00 in0.0 mm 0.00 in0.0 mm
08:52 AM 30.0°F-1.1°C 28.2°F-2.1°C 93% 2.6 mph NW4.2 kmh NW 6.0 mph9.7 kmh 30.29 in1025.7 mb 0.00 in0.0 mm 0.00 in0.0 mm 0.00 in0.0 mm
08:57 AM 30.0°F-1.1°C 28.2°F-2.1°C 93% 1.2 mph WNW1.9 kmh WNW 6.0 mph9.7 kmh 30.29 in1025.7 mb 0.00 in0.0 mm 0.00 in0.0 mm 0.00 in0.0 mm
09:02 AM 30.1°F-1.1°C 28.3°F-2.1°C 93% 2.7 mph NW4.3 kmh NW 7.0 mph11.3 kmh 30.29 in1025.7 mb 0.00 in0.0 mm 0.00 in0.0 mm 0.00 in0.0 mm
09:07 AM 30.2°F-1.0°C 28.4°F-2.0°C 93% 2.1 mph NNW3.4 kmh NNW 7.0 mph11.3 kmh 30.29 in1025.7 mb 0.00 in0.0 mm 0.00 in0.0 mm 0.00 in0.0 mm
09:12 AM 30.5°F-0.8°C 28.7°F-1.8°C 93% 2.3 mph NW3.7 kmh NW 7.0 mph11.3 kmh 30.29 in1025.7 mb 0.00 in0.0 mm 0.00 in0.0 mm 0.00 in0.0 mm
09:17 AM 30.8°F-0.7°C 28.7°F-1.8°C 92% 2.4 mph NW3.9 kmh NW 7.0 mph11.3 kmh 30.29 in1025.7 mb 0.00 in0.0 mm 0.00 in0.0 mm 0.00 in0.0 mm
09:22 AM 31.1°F-0.5°C 29.0°F-1.7°C 92% 2.1 mph NW3.4 kmh NW 7.0 mph11.3 kmh 30.29 in1025.7 mb 0.00 in0.0 mm 0.00 in0.0 mm 0.00 in0.0 mm
09:27 AM 31.5°F-0.3°C 29.1°F-1.6°C 91% 2.6 mph NW4.2 kmh NW 7.0 mph11.3 kmh 30.29 in1025.7 mb 0.00 in0.0 mm 0.00 in0.0 mm 0.00 in0.0 mm
09:32 AM 31.8°F-0.1°C 29.4°F-1.4°C 91% 4.1 mph NW6.6 kmh NW 9.0 mph14.5 kmh 30.29 in1025.7 mb 0.00 in0.0 mm 0.00 in0.0 mm 0.00 in0.0 mm
09:37 AM 32.1°F0.1°C 29.5°F-1.4°C 90% 2.7 mph NW4.3 kmh NW 9.0 mph14.5 kmh 30.29 in1025.7 mb 0.00 in0.0 mm 0.00 in0.0 mm 0.00 in0.0 mm
09:42 AM 32.5°F0.3°C 29.8°F-1.2°C 90% 1.8 mph NW2.9 kmh NW 9.0 mph14.5 kmh 30.30 in1026.1 mb 0.00 in0.0 mm 0.00 in0.0 mm 0.00 in0.0 mm
09:47 AM 32.8°F0.4°C 29.9°F-1.2°C 89% 2.0 mph NW3.2 kmh NW 9.0 mph14.5 kmh 30.30 in1026.1 mb 0.00 in0.0 mm 0.00 in0.0 mm 0.00 in0.0 mm
09:52 AM 33.0°F0.6°C 29.8°F-1.2°C 88% 1.7 mph NW2.7 kmh NW 8.0 mph12.9 kmh 30.30 in1026.1 mb 0.00 in0.0 mm 0.00 in0.0 mm 0.00 in0.0 mm
09:57 AM 33.3°F0.7°C 30.1°F-1.1°C 88% 2.2 mph WNW3.5 kmh WNW 8.0 mph12.9 kmh 30.30 in1026.1 mb 0.00 in0.0 mm 0.00 in0.0 mm 0.00 in0.0 mm
10:02 AM 33.5°F0.8°C 30.0°F-1.1°C 87% 2.6 mph NW4.2 kmh NW 8.0 mph12.9 kmh 30.31 in1026.4 mb 0.00 in0.0 mm 0.00 in0.0 mm 0.00 in0.0 mm
10:07 AM 33.9°F1.1°C 30.4°F-0.9°C 87% 2.3 mph WNW3.7 kmh WNW 8.0 mph12.9 kmh 30.31 in1026.4 mb 0.00 in0.0 mm 0.00 in0.0 mm 0.00 in0.0 mm
10:12 AM 34.1°F1.2°C 30.6°F-0.8°C 87% 1.5 mph WNW2.4 kmh WNW 7.0 mph11.3 kmh 30.31 in1026.4 mb 0.00 in0.0 mm 0.00 in0.0 mm 0.00 in0.0 mm
10:17 AM 34.4°F1.3°C 30.6°F-0.8°C 86% 1.9 mph NW3.1 kmh NW 7.0 mph11.3 kmh 30.31 in1026.4 mb 0.00 in0.0 mm 0.00 in0.0 mm 0.00 in0.0 mm
10:22 AM 34.7°F1.5°C 30.7°F-0.7°C 85% 3.0 mph NW4.8 kmh NW 7.0 mph11.3 kmh 30.31 in1026.4 mb 0.00 in0.0 mm 0.00 in0.0 mm 0.00 in0.0 mm
10:27 AM 35.1°F1.7°C 30.7°F-0.7°C 84% 2.1 mph WNW3.4 kmh WNW 7.0 mph11.3 kmh 30.31 in1026.4 mb 0.00 in0.0 mm 0.00 in0.0 mm 0.00 in0.0 mm
10:32 AM 35.4°F1.9°C 31.0°F-0.6°C 84% 1.3 mph WNW2.1 kmh WNW 7.0 mph11.3 kmh 30.31 in1026.4 mb 0.00 in0.0 mm 0.00 in0.0 mm 0.00 in0.0 mm
10:37 AM 35.9°F2.2°C 31.2°F-0.4°C 83% 4.3 mph WNW6.9 kmh WNW 8.0 mph12.9 kmh 30.31 in1026.4 mb 0.00 in0.0 mm 0.00 in0.0 mm 0.00 in0.0 mm
10:42 AM 36.3°F2.4°C 31.3°F-0.4°C 82% 2.4 mph NW3.9 kmh NW 8.0 mph12.9 kmh 30.32 in1026.8 mb 0.00 in0.0 mm 0.00 in0.0 mm 0.00 in0.0 mm
10:47 AM 36.7°F2.6°C 31.4°F-0.3°C 81% 1.8 mph WNW2.9 kmh WNW 8.0 mph12.9 kmh 30.32 in1026.8 mb 0.00 in0.0 mm 0.00 in0.0 mm 0.00 in0.0 mm
10:52 AM 37.1°F2.8°C 31.8°F-0.1°C 81% 1.8 mph WNW2.9 kmh WNW 8.0 mph12.9 kmh 30.32 in1026.8 mb 0.00 in0.0 mm 0.00 in0.0 mm 0.00 in0.0 mm
10:57 AM 37.8°F3.2°C 32.2°F0.1°C 80% 1.0 mph W1.6 kmh W 6.0 mph9.7 kmh 30.33 in1027.1 mb 0.00 in0.0 mm 0.00 in0.0 mm 0.00 in0.0 mm
11:02 AM 38.1°F3.4°C 32.2°F0.1°C 79% 1.4 mph WNW2.3 kmh WNW 5.0 mph8.0 kmh 30.33 in1027.1 mb 0.00 in0.0 mm 0.00 in0.0 mm 0.00 in0.0 mm
11:07 AM 38.6°F3.7°C 32.4°F0.2°C 78% 1.6 mph WNW2.6 kmh WNW 5.0 mph8.0 kmh 30.33 in1027.1 mb 0.00 in0.0 mm 0.00 in0.0 mm 0.00 in0.0 mm
11:12 AM 38.9°F3.8°C 32.3°F0.2°C 77% 1.9 mph WNW3.1 kmh WNW 7.0 mph11.3 kmh 30.33 in1027.1 mb 0.00 in0.0 mm 0.00 in0.0 mm 0.00 in0.0 mm
11:17 AM 39.2°F4.0°C 32.3°F0.2°C 76% 2.5 mph WNW4.0 kmh WNW 7.0 mph11.3 kmh 30.32 in1026.8 mb 0.00 in0.0 mm 0.00 in0.0 mm 0.00 in0.0 mm
11:22 AM 39.7°F4.3°C 32.8°F0.4°C 76% 1.7 mph WNW2.7 kmh WNW 7.0 mph11.3 kmh 30.33 in1027.1 mb 0.00 in0.0 mm 0.00 in0.0 mm 0.00 in0.0 mm
11:27 AM 40.2°F4.6°C 33.0°F0.6°C 75% 1.2 mph NW1.9 kmh NW 7.0 mph11.3 kmh 30.32 in1026.8 mb 0.00 in0.0 mm 0.00 in0.0 mm 0.00 in0.0 mm
11:32 AM 40.9°F4.9°C 33.6°F0.9°C 75% 1.0 mph NW1.6 kmh NW 5.0 mph8.0 kmh 30.32 in1026.8 mb 0.00 in0.0 mm 0.00 in0.0 mm 0.00 in0.0 mm
11:37 AM 41.5°F5.3°C 33.2°F0.7°C 72% 2.4 mph NW3.9 kmh NW 4.0 mph6.4 kmh 30.32 in1026.8 mb 0.00 in0.0 mm 0.00 in0.0 mm 0.00 in0.0 mm
11:42 AM 42.0°F5.6°C 33.7°F0.9°C 72% 1.0 mph NW1.6 kmh NW 4.0 mph6.4 kmh 30.33 in1027.1 mb 0.00 in0.0 mm 0.00 in0.0 mm 0.00 in0.0 mm
11:47 AM 42.8°F6.0°C 33.7°F0.9°C 70% 1.8 mph WNW2.9 kmh WNW 4.0 mph6.4 kmh 30.33 in1027.1 mb 0.00 in0.0 mm 0.00 in0.0 mm 0.00 in0.0 mm
11:52 AM 43.1°F6.2°C 34.0°F1.1°C 70% 1.0 mph NW1.6 kmh NW 5.0 mph8.0 kmh 30.33 in1027.1 mb 0.00 in0.0 mm 0.00 in0.0 mm 0.00 in0.0 mm
11:57 AM 43.7°F6.5°C 33.9°F1.1°C 68% 2.1 mph W3.4 kmh W 5.0 mph8.0 kmh 30.33 in1027.1 mb 0.00 in0.0 mm 0.00 in0.0 mm 0.00 in0.0 mm
12:02 PM 44.4°F6.9°C 34.6°F1.4°C 68% 1.8 mph W2.9 kmh W 5.0 mph8.0 kmh 30.33 in1027.1 mb 0.00 in0.0 mm 0.00 in0.0 mm 0.00 in0.0 mm
12:07 PM 44.9°F7.2°C 34.3°F1.3°C 66% 2.1 mph WNW3.4 kmh WNW 5.0 mph8.0 kmh 30.32 in1026.8 mb 0.00 in0.0 mm 0.00 in0.0 mm 0.00 in0.0 mm
12:12 PM 45.5°F7.5°C 35.3°F1.8°C 67% 1.0 mph NW1.6 kmh NW 5.0 mph8.0 kmh 30.33 in1027.1 mb 0.00 in0.0 mm 0.00 in0.0 mm 0.00 in0.0 mm
12:17 PM 46.3°F7.9°C 35.7°F2.1°C 66% 1.0 mph NW1.6 kmh NW 4.0 mph6.4 kmh 30.33 in1027.1 mb 0.00 in0.0 mm 0.00 in0.0 mm 0.00 in0.0 mm
12:22 PM 46.7°F8.2°C 35.7°F2.1°C 65% 2.2 mph W3.5 kmh W 4.0 mph6.4 kmh 30.33 in1027.1 mb 0.00 in0.0 mm 0.00 in0.0 mm 0.00 in0.0 mm
12:27 PM 47.0°F8.3°C 35.9°F2.2°C 65% 2.0 mph WNW3.2 kmh WNW 5.0 mph8.0 kmh 30.33 in1027.1 mb 0.00 in0.0 mm 0.00 in0.0 mm 0.00 in0.0 mm
12:32 PM 47.5°F8.6°C 36.0°F2.2°C 64% 2.1 mph NW3.4 kmh NW 7.0 mph11.3 kmh 30.33 in1027.1 mb 0.00 in0.0 mm 0.00 in0.0 mm 0.00 in0.0 mm
12:37 PM 47.8°F8.8°C 35.9°F2.2°C 63% 2.4 mph NW3.9 kmh NW 7.0 mph11.3 kmh 30.32 in1026.8 mb 0.00 in0.0 mm 0.00 in0.0 mm 0.00 in0.0 mm
12:42 PM 48.4°F9.1°C 36.5°F2.5°C 63% 2.0 mph NNW3.2 kmh NNW 7.0 mph11.3 kmh 30.32 in1026.8 mb 0.00 in0.0 mm 0.00 in0.0 mm 0.00 in0.0 mm
12:47 PM 48.9°F9.4°C 36.5°F2.5°C 62% 4.1 mph NNW6.6 kmh NNW 8.0 mph12.9 kmh 30.32 in1026.8 mb 0.00 in0.0 mm 0.00 in0.0 mm 0.00 in0.0 mm
12:52 PM 49.2°F9.6°C 36.8°F2.7°C 62% 1.3 mph NNW2.1 kmh NNW 8.0 mph12.9 kmh 30.32 in1026.8 mb 0.00 in0.0 mm 0.00 in0.0 mm 0.00 in0.0 mm
12:57 PM 49.6°F9.8°C 37.2°F2.9°C 62% 1.5 mph NNW2.4 kmh NNW 8.0 mph12.9 kmh 30.32 in1026.8 mb 0.00 in0.0 mm 0.00 in0.0 mm 0.00 in0.0 mm
01:02 PM 50.1°F10.1°C 37.7°F3.2°C 62% 2.1 mph NW3.4 kmh NW 8.0 mph12.9 kmh 30.31 in1026.4 mb 0.00 in0.0 mm 0.00 in0.0 mm 0.00 in0.0 mm
01:07 PM 50.3°F10.2°C 37.5°F3.1°C 61% 1.4 mph N2.3 kmh N 8.0 mph12.9 kmh 30.31 in1026.4 mb 0.00 in0.0 mm 0.00 in0.0 mm 0.00 in0.0 mm
01:12 PM 50.7°F10.4°C 37.4°F3.0°C 60% 1.8 mph NNW2.9 kmh NNW 8.0 mph12.9 kmh 30.31 in1026.4 mb 0.00 in0.0 mm 0.00 in0.0 mm 0.00 in0.0 mm
01:17 PM 51.0°F10.6°C 36.8°F2.7°C 58% 3.6 mph WNW5.8 kmh WNW 8.0 mph12.9 kmh 30.31 in1026.4 mb 0.00 in0.0 mm 0.00 in0.0 mm 0.00 in0.0 mm
01:22 PM 51.2°F10.7°C 37.9°F3.3°C 60% 1.0 mph NW1.6 kmh NW 6.0 mph9.7 kmh 30.30 in1026.1 mb 0.00 in0.0 mm 0.00 in0.0 mm 0.00 in0.0 mm
01:27 PM 52.0°F11.1°C 37.8°F3.2°C 58% 3.0 mph NW4.8 kmh NW 6.0 mph9.7 kmh 30.30 in1026.1 mb 0.00 in0.0 mm 0.00 in0.0 mm 0.00 in0.0 mm
01:32 PM 52.3°F11.3°C 37.6°F3.1°C 57% 3.5 mph WNW5.6 kmh WNW 7.0 mph11.3 kmh 30.30 in1026.1 mb 0.00 in0.0 mm 0.00 in0.0 mm 0.00 in0.0 mm
01:37 PM 52.6°F11.4°C 36.9°F2.7°C 55% 2.4 mph NW3.9 kmh NW 9.0 mph14.5 kmh 30.30 in1026.1 mb 0.00 in0.0 mm 0.00 in0.0 mm 0.00 in0.0 mm
01:41 PM 52.5°F11.4°C 37.3°F2.9°C 56% 4.3 mph NW6.9 kmh NW 9.0 mph14.5 kmh 30.29 in1025.7 mb 0.00 in0.0 mm 0.00 in0.0 mm 0.00 in0.0 mm
01:46 PM 52.8°F11.6°C 36.6°F2.6°C 54% 2.6 mph NNW4.2 kmh NNW 9.0 mph14.5 kmh 30.29 in1025.7 mb 0.00 in0.0 mm 0.00 in0.0 mm 0.00 in0.0 mm
01:51 PM 52.8°F11.6°C 36.6°F2.6°C 54% 3.6 mph WNW5.8 kmh WNW 10.0 mph16.1 kmh 30.29 in1025.7 mb 0.00 in0.0 mm 0.00 in0.0 mm 0.00 in0.0 mm
01:56 PM 53.0°F11.7°C 36.8°F2.7°C 54% 2.9 mph NW4.7 kmh NW 10.0 mph16.1 kmh 30.28 in1025.4 mb 0.00 in0.0 mm 0.00 in0.0 mm 0.00 in0.0 mm
02:01 PM 53.2°F11.8°C 36.5°F2.5°C 53% 2.8 mph N4.5 kmh N 10.0 mph16.1 kmh 30.28 in1025.4 mb 0.00 in0.0 mm 0.00 in0.0 mm 0.00 in0.0 mm
02:06 PM 53.5°F11.9°C 37.3°F2.9°C 54% 1.5 mph WNW2.4 kmh WNW 10.0 mph16.1 kmh 30.28 in1025.4 mb 0.00 in0.0 mm 0.00 in0.0 mm 0.00 in0.0 mm
02:11 PM 53.6°F12.0°C 36.9°F2.7°C 53% 2.4 mph NW3.9 kmh NW 6.0 mph9.7 kmh 30.27 in1025.1 mb 0.00 in0.0 mm 0.00 in0.0 mm 0.00 in0.0 mm
02:16 PM 53.8°F12.1°C 36.6°F2.6°C 52% 3.0 mph NNW4.8 kmh NNW 6.0 mph9.7 kmh 30.27 in1025.1 mb 0.00 in0.0 mm 0.00 in0.0 mm 0.00 in0.0 mm
02:21 PM 54.1°F12.3°C 37.4°F3.0°C 53% 2.9 mph NNW4.7 kmh NNW 7.0 mph11.3 kmh 30.27 in1025.1 mb 0.00 in0.0 mm 0.00 in0.0 mm 0.00 in0.0 mm
02:26 PM 54.1°F12.3°C 36.4°F2.4°C 51% 2.5 mph WSW4.0 kmh WSW 7.0 mph11.3 kmh 30.27 in1025.1 mb 0.00 in0.0 mm 0.00 in0.0 mm 0.00 in0.0 mm
02:31 PM 54.5°F12.5°C 37.7°F3.2°C 53% 2.3 mph NW3.7 kmh NW 7.0 mph11.3 kmh 30.27 in1025.1 mb 0.00 in0.0 mm 0.00 in0.0 mm 0.00 in0.0 mm
02:36 PM 54.9°F12.7°C 37.1°F2.8°C 51% 3.5 mph NE5.6 kmh NE 7.0 mph11.3 kmh 30.27 in1025.1 mb 0.00 in0.0 mm 0.00 in0.0 mm 0.00 in0.0 mm
02:41 PM 55.1°F12.8°C 36.8°F2.7°C 50% 3.5 mph NNW5.6 kmh NNW 7.0 mph11.3 kmh 30.26 in1024.7 mb 0.00 in0.0 mm 0.00 in0.0 mm 0.00 in0.0 mm
02:46 PM 55.7°F13.2°C 37.3°F2.9°C 50% 1.5 mph NW2.4 kmh NW 7.0 mph11.3 kmh 30.26 in1024.7 mb 0.00 in0.0 mm 0.00 in0.0 mm 0.00 in0.0 mm
02:51 PM 55.7°F13.2°C 37.3°F2.9°C 50% 2.7 mph W4.3 kmh W 7.0 mph11.3 kmh 30.26 in1024.7 mb 0.00 in0.0 mm 0.00 in0.0 mm 0.00 in0.0 mm
02:56 PM 55.9°F13.3°C 37.0°F2.8°C 49% 3.8 mph WNW6.1 kmh WNW 7.0 mph11.3 kmh 30.26 in1024.7 mb 0.00 in0.0 mm 0.00 in0.0 mm 0.00 in0.0 mm
03:01 PM 55.7°F13.2°C 36.3°F2.4°C 48% 3.6 mph WNW5.8 kmh WNW 7.0 mph11.3 kmh 30.26 in1024.7 mb 0.00 in0.0 mm 0.00 in0.0 mm 0.00 in0.0 mm
03:06 PM 55.8°F13.2°C 36.9°F2.7°C 49% 2.8 mph W4.5 kmh W 7.0 mph11.3 kmh 30.26 in1024.7 mb 0.00 in0.0 mm 0.00 in0.0 mm 0.00 in0.0 mm
03:11 PM 55.9°F13.3°C 37.0°F2.8°C 49% 1.9 mph NW3.1 kmh NW 7.0 mph11.3 kmh 30.25 in1024.4 mb 0.00 in0.0 mm 0.00 in0.0 mm 0.00 in0.0 mm
03:16 PM 56.3°F13.5°C 36.8°F2.7°C 48% 3.8 mph NW6.1 kmh NW 9.0 mph14.5 kmh 30.25 in1024.4 mb 0.00 in0.0 mm 0.00 in0.0 mm 0.00 in0.0 mm
03:21 PM 56.4°F13.6°C 36.9°F2.7°C 48% 2.8 mph NNW4.5 kmh NNW 9.0 mph14.5 kmh 30.25 in1024.4 mb 0.00 in0.0 mm 0.00 in0.0 mm 0.00 in0.0 mm
03:26 PM 56.7°F13.7°C 37.2°F2.9°C 48% 2.7 mph NW4.3 kmh NW 9.0 mph14.5 kmh 30.25 in1024.4 mb 0.00 in0.0 mm 0.00 in0.0 mm 0.00 in0.0 mm
03:31 PM 56.7°F13.7°C 36.6°F2.6°C 47% 1.9 mph NNW3.1 kmh NNW 9.0 mph14.5 kmh 30.25 in1024.4 mb 0.00 in0.0 mm 0.00 in0.0 mm 0.00 in0.0 mm
03:36 PM 56.8°F13.8°C 37.3°F2.9°C 48% 2.9 mph N4.7 kmh N 7.0 mph11.3 kmh 30.25 in1024.4 mb 0.00 in0.0 mm 0.00 in0.0 mm 0.00 in0.0 mm
03:41 PM 57.0°F13.9°C 36.9°F2.7°C 47% 3.1 mph NNE5.0 kmh NNE 7.0 mph11.3 kmh 30.25 in1024.4 mb 0.00 in0.0 mm 0.00 in0.0 mm 0.00 in0.0 mm
03:46 PM 57.1°F13.9°C 36.4°F2.4°C 46% 4.6 mph NW7.4 kmh NW 8.0 mph12.9 kmh 30.25 in1024.4 mb 0.00 in0.0 mm 0.00 in0.0 mm 0.00 in0.0 mm
03:51 PM 57.0°F13.9°C 36.9°F2.7°C 47% 3.6 mph NW5.8 kmh NW 8.0 mph12.9 kmh 30.25 in1024.4 mb 0.00 in0.0 mm 0.00 in0.0 mm 0.00 in0.0 mm
03:56 PM 57.3°F14.1°C 37.2°F2.9°C 47% 1.4 mph NNW2.3 kmh NNW 8.0 mph12.9 kmh 30.25 in1024.4 mb 0.00 in0.0 mm 0.00 in0.0 mm 0.00 in0.0 mm
04:01 PM 57.7°F14.3°C 37.6°F3.1°C 47% 2.9 mph NW4.7 kmh NW 8.0 mph12.9 kmh 30.25 in1024.4 mb 0.00 in0.0 mm 0.00 in0.0 mm 0.00 in0.0 mm
04:06 PM 57.7°F14.3°C 37.6°F3.1°C 47% 3.3 mph NW5.3 kmh NW 8.0 mph12.9 kmh 30.25 in1024.4 mb 0.00 in0.0 mm 0.00 in0.0 mm 0.00 in0.0 mm
04:11 PM 57.5°F14.2°C 36.8°F2.7°C 46% 3.5 mph W5.6 kmh W 8.0 mph12.9 kmh 30.25 in1024.4 mb 0.00 in0.0 mm 0.00 in0.0 mm 0.00 in0.0 mm
04:16 PM 57.7°F14.3°C 37.0°F2.8°C 46% 3.1 mph W5.0 kmh W 8.0 mph12.9 kmh 30.25 in1024.4 mb 0.00 in0.0 mm 0.00 in0.0 mm 0.00 in0.0 mm
04:21 PM 58.0°F14.4°C 36.7°F2.6°C 45% 2.4 mph NW3.9 kmh NW 8.0 mph12.9 kmh 30.25 in1024.4 mb 0.00 in0.0 mm 0.00 in0.0 mm 0.00 in0.0 mm
04:26 PM 57.9°F14.4°C 36.6°F2.6°C 45% 5.2 mph WNW8.4 kmh WNW 9.0 mph14.5 kmh 30.25 in1024.4 mb 0.00 in0.0 mm 0.00 in0.0 mm 0.00 in0.0 mm
04:31 PM 57.8°F14.3°C 36.5°F2.5°C 45% 4.3 mph WNW6.9 kmh WNW 11.0 mph17.7 kmh 30.25 in1024.4 mb 0.00 in0.0 mm 0.00 in0.0 mm 0.00 in0.0 mm
04:36 PM 57.9°F14.4°C 36.6°F2.6°C 45% 5.3 mph WNW8.5 kmh WNW 11.0 mph17.7 kmh 30.24 in1024.0 mb 0.00 in0.0 mm 0.00 in0.0 mm 0.00 in0.0 mm
04:41 PM 57.8°F14.3°C 36.5°F2.5°C 45% 4.6 mph NW7.4 kmh NW 11.0 mph17.7 kmh 30.24 in1024.0 mb 0.00 in0.0 mm 0.00 in0.0 mm 0.00 in0.0 mm
04:46 PM 57.8°F14.3°C 36.5°F2.5°C 45% 3.3 mph WNW5.3 kmh WNW 11.0 mph17.7 kmh 30.24 in1024.0 mb 0.00 in0.0 mm 0.00 in0.0 mm 0.00 in0.0 mm
04:51 PM 57.7°F14.3°C 36.5°F2.5°C 45% 5.5 mph WNW8.9 kmh WNW 10.0 mph16.1 kmh 30.24 in1024.0 mb 0.00 in0.0 mm 0.00 in0.0 mm 0.00 in0.0 mm
04:56 PM 58.0°F14.4°C 37.3°F2.9°C 46% 2.2 mph NW3.5 kmh NW 10.0 mph16.1 kmh 30.24 in1024.0 mb 0.00 in0.0 mm 0.00 in0.0 mm 0.00 in0.0 mm
05:01 PM 58.2°F14.6°C 36.9°F2.7°C 45% 2.8 mph NW4.5 kmh NW 10.0 mph16.1 kmh 30.24 in1024.0 mb 0.00 in0.0 mm 0.00 in0.0 mm 0.00 in0.0 mm
05:06 PM 58.1°F14.5°C 37.4°F3.0°C 46% 2.3 mph WNW3.7 kmh WNW 10.0 mph16.1 kmh 30.25 in1024.4 mb 0.00 in0.0 mm 0.00 in0.0 mm 0.00 in0.0 mm
05:11 PM 58.2°F14.6°C 36.9°F2.7°C 45% 3.2 mph NW5.1 kmh NW 9.0 mph14.5 kmh 30.25 in1024.4 mb 0.00 in0.0 mm 0.00 in0.0 mm 0.00 in0.0 mm
05:16 PM 58.0°F14.4°C 37.3°F2.9°C 46% 3.0 mph W4.8 kmh W 9.0 mph14.5 kmh 30.25 in1024.4 mb 0.00 in0.0 mm 0.00 in0.0 mm 0.00 in0.0 mm
05:21 PM 58.1°F14.5°C 36.9°F2.7°C 45% 2.7 mph WNW4.3 kmh WNW 9.0 mph14.5 kmh 30.25 in1024.4 mb 0.00 in0.0 mm 0.00 in0.0 mm 0.00 in0.0 mm
05:26 PM 58.1°F14.5°C 37.4°F3.0°C 46% 2.2 mph NW3.5 kmh NW 7.0 mph11.3 kmh 30.25 in1024.4 mb 0.00 in0.0 mm 0.00 in0.0 mm 0.00 in0.0 mm
05:31 PM 58.2°F14.6°C 37.4°F3.0°C 46% 3.0 mph WSW4.8 kmh WSW 7.0 mph11.3 kmh 30.25 in1024.4 mb 0.00 in0.0 mm 0.00 in0.0 mm 0.00 in0.0 mm
05:36 PM 58.3°F14.6°C 37.5°F3.1°C 46% 4.7 mph WNW7.6 kmh WNW 8.0 mph12.9 kmh 30.25 in1024.4 mb 0.00 in0.0 mm 0.00 in0.0 mm 0.00 in0.0 mm
05:41 PM 58.1°F14.5°C 37.4°F3.0°C 46% 2.4 mph WNW3.9 kmh WNW 8.0 mph12.9 kmh 30.25 in1024.4 mb 0.00 in0.0 mm 0.00 in0.0 mm 0.00 in0.0 mm
05:46 PM 58.1°F14.5°C 36.8°F2.7°C 45% 3.8 mph WNW6.1 kmh WNW 8.0 mph12.9 kmh 30.25 in1024.4 mb 0.00 in0.0 mm 0.00 in0.0 mm 0.00 in0.0 mm
05:51 PM 57.9°F14.4°C 36.6°F2.6°C 45% 4.1 mph WNW6.6 kmh WNW 8.0 mph12.9 kmh 30.25 in1024.4 mb 0.00 in0.0 mm 0.00 in0.0 mm 0.00 in0.0 mm
05:56 PM 57.8°F14.3°C 36.5°F2.5°C 45% 4.7 mph WNW7.6 kmh WNW 9.0 mph14.5 kmh 30.25 in1024.4 mb 0.00 in0.0 mm 0.00 in0.0 mm 0.00 in0.0 mm
06:01 PM 57.8°F14.3°C 37.1°F2.8°C 46% 2.9 mph WNW4.7 kmh WNW 9.0 mph14.5 kmh 30.25 in1024.4 mb 0.00 in0.0 mm 0.00 in0.0 mm 0.00 in0.0 mm
06:06 PM 57.7°F14.3°C 37.0°F2.8°C 46% 3.1 mph WNW5.0 kmh WNW 9.0 mph14.5 kmh 30.25 in1024.4 mb 0.00 in0.0 mm 0.00 in0.0 mm 0.00 in0.0 mm
06:11 PM 57.6°F14.2°C 36.9°F2.7°C 46% 1.9 mph NW3.1 kmh NW 9.0 mph14.5 kmh 30.25 in1024.4 mb 0.00 in0.0 mm 0.00 in0.0 mm 0.00 in0.0 mm
06:16 PM 57.4°F14.1°C 36.8°F2.7°C 46% 2.2 mph WNW3.5 kmh WNW 7.0 mph11.3 kmh 30.25 in1024.4 mb 0.00 in0.0 mm 0.00 in0.0 mm 0.00 in0.0 mm
06:21 PM 57.2°F14.0°C 37.1°F2.8°C 47% 1.6 mph WNW2.6 kmh WNW 6.0 mph9.7 kmh 30.25 in1024.4 mb 0.00 in0.0 mm 0.00 in0.0 mm 0.00 in0.0 mm
06:26 PM 57.0°F13.9°C 36.9°F2.7°C 47% 2.8 mph WNW4.5 kmh WNW 6.0 mph9.7 kmh 30.24 in1024.0 mb 0.00 in0.0 mm 0.00 in0.0 mm 0.00 in0.0 mm
06:31 PM 56.9°F13.8°C 36.8°F2.7°C 47% 1.8 mph WNW2.9 kmh WNW 6.0 mph9.7 kmh 30.25 in1024.4 mb 0.00 in0.0 mm 0.00 in0.0 mm 0.00 in0.0 mm
06:36 PM 56.6°F13.7°C 36.5°F2.5°C 47% 3.2 mph WNW5.1 kmh WNW 6.0 mph9.7 kmh 30.25 in1024.4 mb 0.00 in0.0 mm 0.00 in0.0 mm 0.00 in0.0 mm
06:40 PM 56.3°F13.5°C 36.8°F2.7°C 48% 2.4 mph WNW3.9 kmh WNW 6.0 mph9.7 kmh 30.25 in1024.4 mb 0.00 in0.0 mm 0.00 in0.0 mm 0.00 in0.0 mm
06:45 PM 55.9°F13.3°C 37.0°F2.8°C 49% 1.7 mph W2.7 kmh W 6.0 mph9.7 kmh 30.25 in1024.4 mb 0.00 in0.0 mm 0.00 in0.0 mm 0.00 in0.0 mm
06:50 PM 55.5°F13.1°C 36.6°F2.6°C 49% 2.2 mph WNW3.5 kmh WNW 6.0 mph9.7 kmh 30.25 in1024.4 mb 0.00 in0.0 mm 0.00 in0.0 mm 0.00 in0.0 mm
06:55 PM 55.3°F12.9°C 37.0°F2.8°C 50% 1.2 mph W1.9 kmh W 6.0 mph9.7 kmh 30.25 in1024.4 mb 0.00 in0.0 mm 0.00 in0.0 mm 0.00 in0.0 mm
07:00 PM 55.0°F12.8°C 37.2°F2.9°C 51% 1.6 mph W2.6 kmh W 4.0 mph6.4 kmh 30.26 in1024.7 mb 0.00 in0.0 mm 0.00 in0.0 mm 0.00 in0.0 mm
07:05 PM 54.7°F12.6°C 36.9°F2.7°C 51% 1.5 mph WNW2.4 kmh WNW 4.0 mph6.4 kmh 30.26 in1024.7 mb 0.00 in0.0 mm 0.00 in0.0 mm 0.00 in0.0 mm
07:10 PM 54.5°F12.5°C 37.2°F2.9°C 52% 1.0 mph WNW1.6 kmh WNW 4.0 mph6.4 kmh 30.26 in1024.7 mb 0.00 in0.0 mm 0.00 in0.0 mm 0.00 in0.0 mm
07:15 PM 54.2°F12.3°C 37.0°F2.8°C 52% 1.0 mph WNW1.6 kmh WNW 3.0 mph4.8 kmh 30.26 in1024.7 mb 0.00 in0.0 mm 0.00 in0.0 mm 0.00 in0.0 mm
07:20 PM 54.0°F12.2°C 36.8°F2.7°C 52% 1.1 mph WNW1.8 kmh WNW 3.0 mph4.8 kmh 30.26 in1024.7 mb 0.00 in0.0 mm 0.00 in0.0 mm 0.00 in0.0 mm
07:25 PM 53.8°F12.1°C 37.1°F2.8°C 53% 1.0 mph W1.6 kmh W 2.0 mph3.2 kmh 30.26 in1024.7 mb 0.00 in0.0 mm 0.00 in0.0 mm 0.00 in0.0 mm
07:30 PM 53.7°F12.1°C 37.0°F2.8°C 53% 1.0 mph WNW1.6 kmh WNW 2.0 mph3.2 kmh 30.26 in1024.7 mb 0.00 in0.0 mm 0.00 in0.0 mm 0.00 in0.0 mm
07:35 PM 53.4°F11.9°C 36.7°F2.6°C 53% 1.0 mph WNW1.6 kmh WNW 2.0 mph3.2 kmh 30.26 in1024.7 mb 0.00 in0.0 mm 0.00 in0.0 mm 0.00 in0.0 mm
07:40 PM 53.2°F11.8°C 37.0°F2.8°C 54% 1.0 mph WNW1.6 kmh WNW 2.0 mph3.2 kmh 30.27 in1025.1 mb 0.00 in0.0 mm 0.00 in0.0 mm 0.00 in0.0 mm
07:45 PM 53.0°F11.7°C 37.3°F2.9°C 55% 1.0 mph W1.6 kmh W 2.0 mph3.2 kmh 30.27 in1025.1 mb 0.00 in0.0 mm 0.00 in0.0 mm 0.00 in0.0 mm
07:50 PM 52.8°F11.6°C 37.1°F2.8°C 55% 1.0 mph W1.6 kmh W 2.0 mph3.2 kmh 30.27 in1025.1 mb 0.00 in0.0 mm 0.00 in0.0 mm 0.00 in0.0 mm
07:55 PM 52.7°F11.5°C 37.0°F2.8°C 55% 1.3 mph WNW2.1 kmh WNW 2.0 mph3.2 kmh 30.27 in1025.1 mb 0.00 in0.0 mm 0.00 in0.0 mm 0.00 in0.0 mm
08:00 PM 52.6°F11.4°C 36.9°F2.7°C 55% 1.0 mph WNW1.6 kmh WNW 2.0 mph3.2 kmh 30.28 in1025.4 mb 0.00 in0.0 mm 0.00 in0.0 mm 0.00 in0.0 mm
08:05 PM 52.6°F11.4°C 37.4°F3.0°C 56% 1.1 mph WNW1.8 kmh WNW 2.0 mph3.2 kmh 30.28 in1025.4 mb 0.00 in0.0 mm 0.00 in0.0 mm 0.00 in0.0 mm
08:10 PM 52.5°F11.4°C 37.3°F2.9°C 56% 1.0 mph NW1.6 kmh NW 2.0 mph3.2 kmh 30.28 in1025.4 mb 0.00 in0.0 mm 0.00 in0.0 mm 0.00 in0.0 mm
08:15 PM 52.3°F11.3°C 37.1°F2.8°C 56% 1.1 mph WNW1.8 kmh WNW 2.0 mph3.2 kmh 30.28 in1025.4 mb 0.00 in0.0 mm 0.00 in0.0 mm 0.00 in0.0 mm
08:20 PM 52.1°F11.2°C 37.4°F3.0°C 57% 1.4 mph WNW2.3 kmh WNW 3.0 mph4.8 kmh 30.28 in1025.4 mb 0.00 in0.0 mm 0.00 in0.0 mm 0.00 in0.0 mm
08:25 PM 52.0°F11.1°C 37.3°F2.9°C 57% 1.1 mph WNW1.8 kmh WNW 3.0 mph4.8 kmh 30.28 in1025.4 mb 0.00 in0.0 mm 0.00 in0.0 mm 0.00 in0.0 mm
08:30 PM 51.9°F11.1°C 37.2°F2.9°C 57% 1.3 mph NW2.1 kmh NW 3.0 mph4.8 kmh 30.28 in1025.4 mb 0.00 in0.0 mm 0.00 in0.0 mm 0.00 in0.0 mm
08:35 PM 51.8°F11.0°C 37.1°F2.8°C 57% 1.7 mph NW2.7 kmh NW 3.0 mph4.8 kmh 30.28 in1025.4 mb 0.00 in0.0 mm 0.00 in0.0 mm 0.00 in0.0 mm
08:40 PM 51.6°F10.9°C 37.4°F3.0°C 58% 1.1 mph WNW1.8 kmh WNW 3.0 mph4.8 kmh 30.28 in1025.4 mb 0.00 in0.0 mm 0.00 in0.0 mm 0.00 in0.0 mm
08:45 PM 51.4°F10.8°C 37.2°F2.9°C 58% 1.2 mph WNW1.9 kmh WNW 3.0 mph4.8 kmh 30.28 in1025.4 mb 0.00 in0.0 mm 0.00 in0.0 mm 0.00 in0.0 mm
08:50 PM 51.2°F10.7°C 37.0°F2.8°C 58% 1.2 mph NW1.9 kmh NW 3.0 mph4.8 kmh 30.28 in1025.4 mb 0.00 in0.0 mm 0.00 in0.0 mm 0.00 in0.0 mm
08:55 PM 51.1°F10.6°C 37.4°F3.0°C 59% 1.2 mph WNW1.9 kmh WNW 3.0 mph4.8 kmh 30.28 in1025.4 mb 0.00 in0.0 mm 0.00 in0.0 mm 0.00 in0.0 mm
09:00 PM 50.9°F10.5°C 37.2°F2.9°C 59% 1.2 mph WNW1.9 kmh WNW 3.0 mph4.8 kmh 30.28 in1025.4 mb 0.00 in0.0 mm 0.00 in0.0 mm 0.00 in0.0 mm
09:05 PM 50.7°F10.4°C 37.0°F2.8°C 59% 1.1 mph W1.8 kmh W 3.0 mph4.8 kmh 30.28 in1025.4 mb 0.00 in0.0 mm 0.00 in0.0 mm 0.00 in0.0 mm
09:10 PM 50.6°F10.3°C 36.9°F2.7°C 59% 1.0 mph WNW1.6 kmh WNW 3.0 mph4.8 kmh 30.28 in1025.4 mb 0.00 in0.0 mm 0.00 in0.0 mm 0.00 in0.0 mm
09:15 PM 50.5°F10.3°C 36.3°F2.4°C 58% 1.4 mph NW2.3 kmh NW 3.0 mph4.8 kmh 30.28 in1025.4 mb 0.00 in0.0 mm 0.00 in0.0 mm 0.00 in0.0 mm
09:20 PM 50.4°F10.2°C 36.3°F2.4°C 58% 1.0 mph NW1.6 kmh NW 3.0 mph4.8 kmh 30.27 in1025.1 mb 0.00 in0.0 mm 0.00 in0.0 mm 0.00 in0.0 mm
09:25 PM 50.3°F10.2°C 36.2°F2.3°C 58% 1.2 mph NW1.9 kmh NW 3.0 mph4.8 kmh 30.27 in1025.1 mb 0.00 in0.0 mm 0.00 in0.0 mm 0.00 in0.0 mm
09:30 PM 50.1°F10.1°C 36.4°F2.4°C 59% 1.0 mph NNW1.6 kmh NNW 2.0 mph3.2 kmh 30.27 in1025.1 mb 0.00 in0.0 mm 0.00 in0.0 mm 0.00 in0.0 mm
09:35 PM 49.7°F9.8°C 36.5°F2.5°C 60% 1.0 mph NNW1.6 kmh NNW 2.0 mph3.2 kmh 30.27 in1025.1 mb 0.00 in0.0 mm 0.00 in0.0 mm 0.00 in0.0 mm
09:40 PM 49.5°F9.7°C 36.3°F2.4°C 60% 1.1 mph NNW1.8 kmh NNW 2.0 mph3.2 kmh 30.28 in1025.4 mb 0.00 in0.0 mm 0.00 in0.0 mm 0.00 in0.0 mm
09:45 PM 49.4°F9.7°C 36.2°F2.3°C 60% 1.1 mph NW1.8 kmh NW 2.0 mph3.2 kmh 30.28 in1025.4 mb 0.00 in0.0 mm 0.00 in0.0 mm 0.00 in0.0 mm
09:50 PM 49.3°F9.6°C 36.1°F2.3°C 60% 1.4 mph NW2.3 kmh NW 3.0 mph4.8 kmh 30.28 in1025.4 mb 0.00 in0.0 mm 0.00 in0.0 mm 0.00 in0.0 mm
09:55 PM 49.0°F9.4°C 36.1°F2.3°C 61% 1.0 mph NW1.6 kmh NW 3.0 mph4.8 kmh 30.27 in1025.1 mb 0.00 in0.0 mm 0.00 in0.0 mm 0.00 in0.0 mm
10:00 PM 48.7°F9.3°C 36.3°F2.4°C 62% 1.3 mph NW2.1 kmh NW 3.0 mph4.8 kmh 30.27 in1025.1 mb 0.00 in0.0 mm 0.00 in0.0 mm 0.00 in0.0 mm
10:05 PM 48.5°F9.2°C 36.2°F2.3°C 62% Calm Calm 3.0 mph4.8 kmh 30.27 in1025.1 mb 0.00 in0.0 mm 0.00 in0.0 mm 0.00 in0.0 mm
10:10 PM 48.4°F9.1°C 36.4°F2.4°C 63% 1.4 mph NW2.3 kmh NW 3.0 mph4.8 kmh 30.27 in1025.1 mb 0.00 in0.0 mm 0.00 in0.0 mm 0.00 in0.0 mm
10:15 PM 48.3°F9.1°C 36.0°F2.2°C 62% 1.8 mph NW2.9 kmh NW 4.0 mph6.4 kmh 30.27 in1025.1 mb 0.00 in0.0 mm 0.00 in0.0 mm 0.00 in0.0 mm
10:20 PM 48.2°F9.0°C 35.9°F2.2°C 62% 1.6 mph NW2.6 kmh NW 4.0 mph6.4 kmh 30.27 in1025.1 mb 0.00 in0.0 mm 0.00 in0.0 mm 0.00 in0.0 mm
10:25 PM 48.1°F8.9°C 35.8°F2.1°C 62% 1.4 mph NW2.3 kmh NW 4.0 mph6.4 kmh 30.28 in1025.4 mb 0.00 in0.0 mm 0.00 in0.0 mm 0.00 in0.0 mm
10:30 PM 47.9°F8.8°C 35.5°F1.9°C 62% 1.2 mph NW1.9 kmh NW 4.0 mph6.4 kmh 30.28 in1025.4 mb 0.00 in0.0 mm 0.00 in0.0 mm 0.00 in0.0 mm
10:35 PM 47.7°F8.7°C 35.4°F1.9°C 62% 2.0 mph NW3.2 kmh NW 6.0 mph9.7 kmh 30.28 in1025.4 mb 0.00 in0.0 mm 0.00 in0.0 mm 0.00 in0.0 mm
10:41 PM 47.7°F8.7°C 35.4°F1.9°C 62% 1.3 mph NW2.1 kmh NW 6.0 mph9.7 kmh 30.28 in1025.4 mb 0.00 in0.0 mm 0.00 in0.0 mm 0.00 in0.0 mm
10:45 PM 47.4°F8.6°C 35.1°F1.7°C 62% 1.4 mph NW2.3 kmh NW 6.0 mph9.7 kmh 30.28 in1025.4 mb 0.00 in0.0 mm 0.00 in0.0 mm 0.00 in0.0 mm
10:50 PM 47.3°F8.5°C 35.0°F1.7°C 62% 1.1 mph WNW1.8 kmh WNW 6.0 mph9.7 kmh 30.28 in1025.4 mb 0.00 in0.0 mm 0.00 in0.0 mm 0.00 in0.0 mm
10:55 PM 47.2°F8.4°C 34.5°F1.4°C 61% 1.7 mph NW2.7 kmh NW 4.0 mph6.4 kmh 30.28 in1025.4 mb 0.00 in0.0 mm 0.00 in0.0 mm 0.00 in0.0 mm
11:00 PM 47.1°F8.4°C 34.3°F1.3°C 61% 1.5 mph NW2.4 kmh NW 4.0 mph6.4 kmh 30.29 in1025.7 mb 0.00 in0.0 mm 0.00 in0.0 mm 0.00 in0.0 mm
11:06 PM 47.0°F8.3°C 34.3°F1.3°C 61% 2.1 mph NW3.4 kmh NW 4.0 mph6.4 kmh 30.29 in1025.7 mb 0.00 in0.0 mm 0.00 in0.0 mm 0.00 in0.0 mm
11:11 PM 46.8°F8.2°C 34.0°F1.1°C 61% 1.4 mph NW2.3 kmh NW 4.0 mph6.4 kmh 30.29 in1025.7 mb 0.00 in0.0 mm 0.00 in0.0 mm 0.00 in0.0 mm
11:16 PM 46.7°F8.2°C 34.0°F1.1°C 61% 1.1 mph NW1.8 kmh NW 4.0 mph6.4 kmh 30.28 in1025.4 mb 0.00 in0.0 mm 0.00 in0.0 mm 0.00 in0.0 mm
11:21 PM 46.5°F8.1°C 34.3°F1.3°C 62% 1.0 mph WNW1.6 kmh WNW 4.0 mph6.4 kmh 30.28 in1025.4 mb 0.00 in0.0 mm 0.00 in0.0 mm 0.00 in0.0 mm
11:26 PM 46.4°F8.0°C 34.2°F1.2°C 62% 1.0 mph WNW1.6 kmh WNW 3.0 mph4.8 kmh 30.28 in1025.4 mb 0.00 in0.0 mm 0.00 in0.0 mm 0.00 in0.0 mm
11:31 PM 46.3°F7.9°C 34.1°F1.2°C 62% Calm Calm 3.0 mph4.8 kmh 30.28 in1025.4 mb 0.00 in0.0 mm 0.00 in0.0 mm 0.00 in0.0 mm
11:36 PM 46.1°F7.8°C 34.3°F1.3°C 63% 1.0 mph WNW1.6 kmh WNW 3.0 mph4.8 kmh 30.28 in1025.4 mb 0.00 in0.0 mm 0.00 in0.0 mm 0.00 in0.0 mm
11:40 PM 46.0°F7.8°C 34.2°F1.2°C 63% 1.0 mph WNW1.6 kmh WNW 3.0 mph4.8 kmh 30.27 in1025.1 mb 0.00 in0.0 mm 0.00 in0.0 mm 0.00 in0.0 mm
11:45 PM 45.9°F7.7°C 34.1°F1.2°C 63% 1.1 mph NW1.8 kmh NW 3.0 mph4.8 kmh 30.28 in1025.4 mb 0.00 in0.0 mm 0.00 in0.0 mm 0.00 in0.0 mm
11:50 PM 45.9°F7.7°C 34.1°F1.2°C 63% 1.0 mph WNW1.6 kmh WNW 2.0 mph3.2 kmh 30.28 in1025.4 mb 0.00 in0.0 mm 0.00 in0.0 mm 0.00 in0.0 mm
11:55 PM 45.9°F7.7°C 34.0°F1.1°C 63% 1.2 mph NW1.9 kmh NW 2.0 mph3.2 kmh 30.28 in1025.4 mb 0.00 in0.0 mm 0.00 in0.0 mm 0.00 in0.0 mm